Hovedside
METAR-TAF:

METAR-TAF

Lufthavner :

Richland, Washington, USA

breddegrad: 46-18-20N, lengdegrad: 119-18-15W, høyde over havet: 120 m

Gjeldene værobservasjon

Denne rapporten ble laget for 10 minutter siden, klokken 20:55 UTC
Flau vind
Temperatur 7°C
Luftfuktighet 93%
Trykk 1014 hPa
Sikt: 11.3 km
Spredte skyer i en høyde av 10000 ft
Brutte skyer i en høyde av 12000 ft

METAR: KRLD 122055Z AUTO 00000KT 7SM SCT100 BKN120 07/06 A2993 RMK AO2 T00690063

Tid: 13:05 (21:05 UTC)


TAF: fraværende

Værobservasjoner og værvarsel for over 4000 flyplasser (METAR- og TAF-rapporter).

Tilgjengelige stasjoner er representert av de røde og gule prikkene på kartet.

Hold musepekeren over prikken for å se navnet på stasjonen.

Klikk så for å se værobservasjoner og -varsler.

For å forandre kartet kan du klikke på den grønne knappen med svart kryss for å zoome inn, på den grønne knappen med strek for å zoome ut, eller på de grønne pilene for å se tilstøtende kart.


METAR-TAF: